sensor_id;sensor_type;location;lat;lon;timestamp;P1;durP1;ratioP1;P2;durP2;ratioP2
13238;SDS011;6686;51.292;4.166;2023-07-22T00:00:46;13.20;;;9.67;;
13238;SDS011;6686;51.292;4.166;2023-07-22T00:03:32;13.33;;;9.17;;
13238;SDS011;6686;51.292;4.166;2023-07-22T00:06:18;12.43;;;9.40;;
13238;SDS011;6686;51.292;4.166;2023-07-22T00:09:04;16.97;;;9.60;;
13238;SDS011;6686;51.292;4.166;2023-07-22T00:11:50;12.50;;;9.53;;
13238;SDS011;6686;51.292;4.166;2023-07-22T00:14:39;14.73;;;10.07;;
13238;SDS011;6686;51.292;4.166;2023-07-22T00:17:25;14.67;;;10.17;;
13238;SDS011;6686;51.292;4.166;2023-07-22T00:20:11;14.93;;;10.10;;
13238;SDS011;6686;51.292;4.166;2023-07-22T00:22:57;15.10;;;10.67;;
13238;SDS011;6686;51.292;4.166;2023-07-22T00:25:43;16.35;;;12.40;;
13238;SDS011;6686;51.292;4.166;2023-07-22T00:28:28;18.63;;;11.57;;
13238;SDS011;6686;51.292;4.166;2023-07-22T00:31:15;17.37;;;10.83;;
13238;SDS011;6686;51.292;4.166;2023-07-22T00:34:01;15.63;;;10.60;;
13238;SDS011;6686;51.292;4.166;2023-07-22T00:36:47;15.57;;;10.77;;
13238;SDS011;6686;51.292;4.166;2023-07-22T00:39:33;14.67;;;10.83;;
13238;SDS011;6686;51.292;4.166;2023-07-22T00:42:19;17.97;;;12.17;;
13238;SDS011;6686;51.292;4.166;2023-07-22T00:45:05;15.83;;;10.67;;
13238;SDS011;6686;51.292;4.166;2023-07-22T00:47:51;16.27;;;12.33;;
13238;SDS011;6686;51.292;4.166;2023-07-22T00:50:36;17.10;;;12.27;;
13238;SDS011;6686;51.292;4.166;2023-07-22T00:53:22;12.57;;;10.93;;
13238;SDS011;6686;51.292;4.166;2023-07-22T00:56:08;17.73;;;10.93;;
13238;SDS011;6686;51.292;4.166;2023-07-22T00:58:54;16.30;;;12.43;;
13238;SDS011;6686;51.292;4.166;2023-07-22T01:01:40;16.10;;;11.07;;
13238;SDS011;6686;51.292;4.166;2023-07-22T01:04:25;15.70;;;10.67;;
13238;SDS011;6686;51.292;4.166;2023-07-22T01:07:12;15.53;;;10.80;;
13238;SDS011;6686;51.292;4.166;2023-07-22T01:09:58;17.10;;;10.47;;
13238;SDS011;6686;51.292;4.166;2023-07-22T01:12:44;18.97;;;11.03;;
13238;SDS011;6686;51.292;4.166;2023-07-22T01:15:30;18.40;;;12.90;;
13238;SDS011;6686;51.292;4.166;2023-07-22T01:18:16;13.87;;;11.23;;
13238;SDS011;6686;51.292;4.166;2023-07-22T01:21:01;17.67;;;11.57;;
13238;SDS011;6686;51.292;4.166;2023-07-22T01:23:47;14.03;;;10.50;;
13238;SDS011;6686;51.292;4.166;2023-07-22T01:26:33;16.23;;;10.23;;
13238;SDS011;6686;51.292;4.166;2023-07-22T01:29:18;16.03;;;11.23;;
13238;SDS011;6686;51.292;4.166;2023-07-22T01:32:04;17.00;;;11.50;;
13238;SDS011;6686;51.292;4.166;2023-07-22T01:34:50;14.43;;;11.03;;
13238;SDS011;6686;51.292;4.166;2023-07-22T01:37:36;17.50;;;11.23;;
13238;SDS011;6686;51.292;4.166;2023-07-22T01:40:21;17.00;;;10.97;;
13238;SDS011;6686;51.292;4.166;2023-07-22T01:43:07;16.12;;;12.45;;
13238;SDS011;6686;51.292;4.166;2023-07-22T01:45:53;19.17;;;10.80;;
13238;SDS011;6686;51.292;4.166;2023-07-22T01:48:38;15.47;;;10.40;;
13238;SDS011;6686;51.292;4.166;2023-07-22T01:51:24;15.40;;;10.67;;
13238;SDS011;6686;51.292;4.166;2023-07-22T01:54:10;17.67;;;9.97;;
13238;SDS011;6686;51.292;4.166;2023-07-22T01:56:56;14.60;;;10.67;;
13238;SDS011;6686;51.292;4.166;2023-07-22T01:59:42;16.63;;;11.07;;
13238;SDS011;6686;51.292;4.166;2023-07-22T02:02:28;14.70;;;9.67;;
13238;SDS011;6686;51.292;4.166;2023-07-22T02:05:14;16.77;;;10.67;;
13238;SDS011;6686;51.292;4.166;2023-07-22T02:08:00;17.50;;;10.90;;
13238;SDS011;6686;51.292;4.166;2023-07-22T02:10:46;17.47;;;11.07;;
13238;SDS011;6686;51.292;4.166;2023-07-22T02:13:32;14.27;;;10.30;;
13238;SDS011;6686;51.292;4.166;2023-07-22T02:16:17;17.05;;;12.20;;
13238;SDS011;6686;51.292;4.166;2023-07-22T02:19:04;17.10;;;10.47;;
13238;SDS011;6686;51.292;4.166;2023-07-22T02:21:50;15.70;;;11.63;;
13238;SDS011;6686;51.292;4.166;2023-07-22T02:24:36;14.90;;;11.23;;
13238;SDS011;6686;51.292;4.166;2023-07-22T02:27:22;13.77;;;11.03;;
13238;SDS011;6686;51.292;4.166;2023-07-22T02:30:08;17.83;;;12.20;;
13238;SDS011;6686;51.292;4.166;2023-07-22T02:32:57;15.43;;;11.33;;
13238;SDS011;6686;51.292;4.166;2023-07-22T02:35:43;15.77;;;11.13;;
13238;SDS011;6686;51.292;4.166;2023-07-22T02:38:29;15.23;;;11.17;;
13238;SDS011;6686;51.292;4.166;2023-07-22T02:41:14;15.13;;;11.53;;
13238;SDS011;6686;51.292;4.166;2023-07-22T02:44:00;15.20;;;11.03;;
13238;SDS011;6686;51.292;4.166;2023-07-22T02:46:46;19.50;;;13.13;;
13238;SDS011;6686;51.292;4.166;2023-07-22T02:49:32;17.10;;;11.43;;
13238;SDS011;6686;51.292;4.166;2023-07-22T02:52:18;14.23;;;11.27;;
13238;SDS011;6686;51.292;4.166;2023-07-22T02:55:05;16.27;;;10.50;;
13238;SDS011;6686;51.292;4.166;2023-07-22T02:57:49;19.40;;;11.40;;
13238;SDS011;6686;51.292;4.166;2023-07-22T03:00:35;15.97;;;10.83;;
13238;SDS011;6686;51.292;4.166;2023-07-22T03:03:22;16.57;;;10.77;;
13238;SDS011;6686;51.292;4.166;2023-07-22T03:06:07;17.53;;;11.53;;
13238;SDS011;6686;51.292;4.166;2023-07-22T03:08:53;17.10;;;11.47;;
13238;SDS011;6686;51.292;4.166;2023-07-22T03:11:39;15.60;;;10.63;;
13238;SDS011;6686;51.292;4.166;2023-07-22T03:14:25;15.80;;;11.20;;
13238;SDS011;6686;51.292;4.166;2023-07-22T03:17:11;15.23;;;11.47;;
13238;SDS011;6686;51.292;4.166;2023-07-22T03:20:00;14.20;;;10.67;;
13238;SDS011;6686;51.292;4.166;2023-07-22T03:22:46;15.20;;;11.95;;
13238;SDS011;6686;51.292;4.166;2023-07-22T03:25:32;16.73;;;12.80;;
13238;SDS011;6686;51.292;4.166;2023-07-22T03:28:18;17.80;;;12.50;;
13238;SDS011;6686;51.292;4.166;2023-07-22T03:31:04;15.47;;;10.93;;
13238;SDS011;6686;51.292;4.166;2023-07-22T03:33:54;17.57;;;11.67;;
13238;SDS011;6686;51.292;4.166;2023-07-22T03:36:36;19.13;;;11.50;;
13238;SDS011;6686;51.292;4.166;2023-07-22T03:39:22;16.93;;;12.00;;
13238;SDS011;6686;51.292;4.166;2023-07-22T03:42:08;18.33;;;11.53;;
13238;SDS011;6686;51.292;4.166;2023-07-22T03:44:54;19.80;;;10.77;;
13238;SDS011;6686;51.292;4.166;2023-07-22T03:47:40;17.80;;;11.30;;
13238;SDS011;6686;51.292;4.166;2023-07-22T03:50:26;21.60;;;11.07;;
13238;SDS011;6686;51.292;4.166;2023-07-22T03:53:12;20.53;;;12.57;;
13238;SDS011;6686;51.292;4.166;2023-07-22T03:55:58;18.27;;;10.90;;
13238;SDS011;6686;51.292;4.166;2023-07-22T03:58:44;20.20;;;11.93;;
13238;SDS011;6686;51.292;4.166;2023-07-22T04:01:30;16.33;;;10.90;;
13238;SDS011;6686;51.292;4.166;2023-07-22T04:04:16;18.40;;;10.83;;
13238;SDS011;6686;51.292;4.166;2023-07-22T04:07:02;19.80;;;11.63;;
13238;SDS011;6686;51.292;4.166;2023-07-22T04:09:48;20.70;;;13.45;;
13238;SDS011;6686;51.292;4.166;2023-07-22T04:12:34;25.70;;;13.43;;
13238;SDS011;6686;51.292;4.166;2023-07-22T04:15:20;17.30;;;11.73;;
13238;SDS011;6686;51.292;4.166;2023-07-22T04:18:06;15.10;;;10.53;;
13238;SDS011;6686;51.292;4.166;2023-07-22T04:20:55;17.10;;;11.27;;
13238;SDS011;6686;51.292;4.166;2023-07-22T04:23:40;16.40;;;11.40;;
13238;SDS011;6686;51.292;4.166;2023-07-22T04:26:26;19.27;;;11.90;;
13238;SDS011;6686;51.292;4.166;2023-07-22T04:29:12;19.53;;;12.50;;
13238;SDS011;6686;51.292;4.166;2023-07-22T04:31:58;21.50;;;11.43;;
13238;SDS011;6686;51.292;4.166;2023-07-22T04:34:44;18.83;;;11.33;;
13238;SDS011;6686;51.292;4.166;2023-07-22T04:37:29;18.62;;;12.80;;
13238;SDS011;6686;51.292;4.166;2023-07-22T04:40:15;19.37;;;12.60;;
13238;SDS011;6686;51.292;4.166;2023-07-22T04:43:01;16.60;;;10.33;;
13238;SDS011;6686;51.292;4.166;2023-07-22T04:45:47;15.57;;;10.80;;
13238;SDS011;6686;51.292;4.166;2023-07-22T04:48:33;16.50;;;10.63;;
13238;SDS011;6686;51.292;4.166;2023-07-22T04:51:19;15.43;;;10.40;;
13238;SDS011;6686;51.292;4.166;2023-07-22T04:54:05;18.20;;;10.60;;
13238;SDS011;6686;51.292;4.166;2023-07-22T04:56:51;23.17;;;11.97;;
13238;SDS011;6686;51.292;4.166;2023-07-22T04:59:37;20.37;;;11.43;;
13238;SDS011;6686;51.292;4.166;2023-07-22T05:02:23;16.23;;;11.27;;
13238;SDS011;6686;51.292;4.166;2023-07-22T05:05:08;19.87;;;12.77;;
13238;SDS011;6686;51.292;4.166;2023-07-22T05:07:54;21.17;;;11.70;;
13238;SDS011;6686;51.292;4.166;2023-07-22T05:10:40;16.33;;;10.20;;
13238;SDS011;6686;51.292;4.166;2023-07-22T05:13:26;19.97;;;11.07;;
13238;SDS011;6686;51.292;4.166;2023-07-22T05:16:12;16.13;;;11.37;;
13238;SDS011;6686;51.292;4.166;2023-07-22T05:18:58;15.90;;;11.17;;
13238;SDS011;6686;51.292;4.166;2023-07-22T05:21:44;16.73;;;11.00;;
13238;SDS011;6686;51.292;4.166;2023-07-22T05:24:30;16.60;;;10.47;;
13238;SDS011;6686;51.292;4.166;2023-07-22T05:27:19;17.97;;;10.67;;
13238;SDS011;6686;51.292;4.166;2023-07-22T05:30:06;16.63;;;10.43;;
13238;SDS011;6686;51.292;4.166;2023-07-22T05:32:52;19.53;;;11.00;;
13238;SDS011;6686;51.292;4.166;2023-07-22T05:35:38;17.60;;;10.67;;
13238;SDS011;6686;51.292;4.166;2023-07-22T05:38:23;15.88;;;11.70;;
13238;SDS011;6686;51.292;4.166;2023-07-22T05:41:09;16.70;;;11.33;;
13238;SDS011;6686;51.292;4.166;2023-07-22T05:43:55;14.73;;;10.10;;
13238;SDS011;6686;51.292;4.166;2023-07-22T05:46:41;15.90;;;10.10;;
13238;SDS011;6686;51.292;4.166;2023-07-22T05:49:27;18.30;;;9.73;;
13238;SDS011;6686;51.292;4.166;2023-07-22T05:52:12;16.30;;;9.93;;
13238;SDS011;6686;51.292;4.166;2023-07-22T05:54:58;18.00;;;10.07;;
13238;SDS011;6686;51.292;4.166;2023-07-22T05:57:44;18.77;;;12.40;;
13238;SDS011;6686;51.292;4.166;2023-07-22T06:00:31;14.27;;;10.00;;
13238;SDS011;6686;51.292;4.166;2023-07-22T06:03:17;14.70;;;9.83;;
13238;SDS011;6686;51.292;4.166;2023-07-22T06:06:03;14.87;;;9.13;;
13238;SDS011;6686;51.292;4.166;2023-07-22T06:08:49;15.97;;;9.93;;
13238;SDS011;6686;51.292;4.166;2023-07-22T06:11:34;13.67;;;9.13;;
13238;SDS011;6686;51.292;4.166;2023-07-22T06:14:20;15.87;;;8.90;;
13238;SDS011;6686;51.292;4.166;2023-07-22T06:17:06;14.60;;;9.52;;
13238;SDS011;6686;51.292;4.166;2023-07-22T06:19:52;11.37;;;8.33;;
13238;SDS011;6686;51.292;4.166;2023-07-22T06:22:38;10.57;;;7.60;;
13238;SDS011;6686;51.292;4.166;2023-07-22T06:25:24;15.70;;;8.83;;
13238;SDS011;6686;51.292;4.166;2023-07-22T06:28:10;13.03;;;8.70;;
13238;SDS011;6686;51.292;4.166;2023-07-22T06:30:56;15.37;;;8.67;;
13238;SDS011;6686;51.292;4.166;2023-07-22T06:33:41;15.68;;;9.52;;
13238;SDS011;6686;51.292;4.166;2023-07-22T06:36:28;16.83;;;8.63;;
13238;SDS011;6686;51.292;4.166;2023-07-22T06:39:13;12.17;;;8.20;;
13238;SDS011;6686;51.292;4.166;2023-07-22T06:42:00;12.33;;;8.00;;
13238;SDS011;6686;51.292;4.166;2023-07-22T06:44:46;12.27;;;7.83;;
13238;SDS011;6686;51.292;4.166;2023-07-22T06:47:31;13.37;;;7.43;;
13238;SDS011;6686;51.292;4.166;2023-07-22T06:50:17;13.03;;;7.27;;
13238;SDS011;6686;51.292;4.166;2023-07-22T06:53:03;13.07;;;7.03;;
13238;SDS011;6686;51.292;4.166;2023-07-22T06:55:50;13.90;;;7.20;;
13238;SDS011;6686;51.292;4.166;2023-07-22T06:58:35;12.57;;;7.30;;
13238;SDS011;6686;51.292;4.166;2023-07-22T07:01:23;11.17;;;7.73;;
13238;SDS011;6686;51.292;4.166;2023-07-22T07:04:09;10.37;;;7.37;;
13238;SDS011;6686;51.292;4.166;2023-07-22T07:06:55;13.53;;;7.30;;
13238;SDS011;6686;51.292;4.166;2023-07-22T07:09:42;13.60;;;7.43;;
13238;SDS011;6686;51.292;4.166;2023-07-22T07:12:28;10.63;;;6.90;;
13238;SDS011;6686;51.292;4.166;2023-07-22T07:15:13;11.60;;;7.23;;
13238;SDS011;6686;51.292;4.166;2023-07-22T07:17:59;11.47;;;7.03;;
13238;SDS011;6686;51.292;4.166;2023-07-22T07:20:45;11.03;;;6.90;;
13238;SDS011;6686;51.292;4.166;2023-07-22T07:23:31;10.93;;;5.90;;
13238;SDS011;6686;51.292;4.166;2023-07-22T07:26:17;9.00;;;6.50;;
13238;SDS011;6686;51.292;4.166;2023-07-22T07:29:03;11.10;;;7.67;;
13238;SDS011;6686;51.292;4.166;2023-07-22T07:31:49;11.23;;;7.03;;
13238;SDS011;6686;51.292;4.166;2023-07-22T07:34:35;12.07;;;6.70;;
13238;SDS011;6686;51.292;4.166;2023-07-22T07:37:22;13.93;;;7.53;;
13238;SDS011;6686;51.292;4.166;2023-07-22T07:40:07;12.97;;;6.60;;
13238;SDS011;6686;51.292;4.166;2023-07-22T07:42:53;13.73;;;6.77;;
13238;SDS011;6686;51.292;4.166;2023-07-22T07:45:39;9.77;;;5.57;;
13238;SDS011;6686;51.292;4.166;2023-07-22T07:48:25;12.35;;;6.80;;
13238;SDS011;6686;51.292;4.166;2023-07-22T07:51:11;10.23;;;5.70;;
13238;SDS011;6686;51.292;4.166;2023-07-22T07:53:57;8.97;;;5.83;;
13238;SDS011;6686;51.292;4.166;2023-07-22T07:56:42;11.13;;;6.00;;
13238;SDS011;6686;51.292;4.166;2023-07-22T07:59:28;7.80;;;5.40;;
13238;SDS011;6686;51.292;4.166;2023-07-22T08:02:14;8.87;;;4.90;;
13238;SDS011;6686;51.292;4.166;2023-07-22T08:05:00;9.57;;;5.60;;
13238;SDS011;6686;51.292;4.166;2023-07-22T08:07:46;9.20;;;6.10;;
13238;SDS011;6686;51.292;4.166;2023-07-22T08:10:32;11.90;;;5.37;;
13238;SDS011;6686;51.292;4.166;2023-07-22T08:13:18;6.87;;;5.00;;
13238;SDS011;6686;51.292;4.166;2023-07-22T08:16:04;8.53;;;5.10;;
13238;SDS011;6686;51.292;4.166;2023-07-22T08:18:50;10.03;;;5.43;;
13238;SDS011;6686;51.292;4.166;2023-07-22T08:21:36;11.20;;;4.93;;
13238;SDS011;6686;51.292;4.166;2023-07-22T08:24:22;8.40;;;4.57;;
13238;SDS011;6686;51.292;4.166;2023-07-22T08:27:08;6.43;;;4.40;;
13238;SDS011;6686;51.292;4.166;2023-07-22T08:29:54;12.17;;;5.03;;
13238;SDS011;6686;51.292;4.166;2023-07-22T08:32:39;7.20;;;4.30;;
13238;SDS011;6686;51.292;4.166;2023-07-22T08:35:25;9.47;;;3.93;;
13238;SDS011;6686;51.292;4.166;2023-07-22T08:38:11;7.30;;;4.10;;
13238;SDS011;6686;51.292;4.166;2023-07-22T08:40:56;8.97;;;4.17;;
13238;SDS011;6686;51.292;4.166;2023-07-22T08:43:42;6.20;;;3.67;;
13238;SDS011;6686;51.292;4.166;2023-07-22T08:46:28;7.73;;;3.90;;
13238;SDS011;6686;51.292;4.166;2023-07-22T08:49:14;6.47;;;3.70;;
13238;SDS011;6686;51.292;4.166;2023-07-22T08:52:00;7.23;;;4.30;;
13238;SDS011;6686;51.292;4.166;2023-07-22T08:54:46;7.47;;;4.67;;
13238;SDS011;6686;51.292;4.166;2023-07-22T08:57:32;5.83;;;4.37;;
13238;SDS011;6686;51.292;4.166;2023-07-22T09:00:18;5.83;;;3.57;;
13238;SDS011;6686;51.292;4.166;2023-07-22T09:03:04;5.80;;;3.50;;
13238;SDS011;6686;51.292;4.166;2023-07-22T09:05:50;6.57;;;3.53;;
13238;SDS011;6686;51.292;4.166;2023-07-22T09:08:36;9.27;;;3.90;;
13238;SDS011;6686;51.292;4.166;2023-07-22T09:11:22;5.40;;;3.33;;
13238;SDS011;6686;51.292;4.166;2023-07-22T09:14:08;5.17;;;3.23;;
13238;SDS011;6686;51.292;4.166;2023-07-22T09:16:54;6.13;;;3.40;;
13238;SDS011;6686;51.292;4.166;2023-07-22T09:19:40;7.10;;;3.50;;
13238;SDS011;6686;51.292;4.166;2023-07-22T09:22:26;5.40;;;3.67;;
13238;SDS011;6686;51.292;4.166;2023-07-22T09:25:14;6.90;;;4.05;;
13238;SDS011;6686;51.292;4.166;2023-07-22T09:28:03;8.87;;;3.90;;
13238;SDS011;6686;51.292;4.166;2023-07-22T09:30:49;6.53;;;3.07;;
13238;SDS011;6686;51.292;4.166;2023-07-22T09:33:35;6.03;;;3.60;;
13238;SDS011;6686;51.292;4.166;2023-07-22T09:36:20;4.73;;;3.20;;
13238;SDS011;6686;51.292;4.166;2023-07-22T09:39:07;4.87;;;3.07;;
13238;SDS011;6686;51.292;4.166;2023-07-22T09:41:53;8.30;;;3.37;;
13238;SDS011;6686;51.292;4.166;2023-07-22T09:44:39;6.20;;;2.93;;
13238;SDS011;6686;51.292;4.166;2023-07-22T09:47:24;4.97;;;3.30;;
13238;SDS011;6686;51.292;4.166;2023-07-22T09:50:11;4.73;;;3.20;;
13238;SDS011;6686;51.292;4.166;2023-07-22T09:52:57;6.10;;;2.93;;
13238;SDS011;6686;51.292;4.166;2023-07-22T09:55:42;3.27;;;2.80;;
13238;SDS011;6686;51.292;4.166;2023-07-22T09:58:28;5.50;;;3.20;;
13238;SDS011;6686;51.292;4.166;2023-07-22T10:01:14;5.60;;;3.10;;
13238;SDS011;6686;51.292;4.166;2023-07-22T10:04:00;6.83;;;3.03;;
13238;SDS011;6686;51.292;4.166;2023-07-22T10:06:46;5.23;;;3.00;;
13238;SDS011;6686;51.292;4.166;2023-07-22T10:09:31;7.20;;;3.10;;
13238;SDS011;6686;51.292;4.166;2023-07-22T10:12:17;5.60;;;3.10;;
13238;SDS011;6686;51.292;4.166;2023-07-22T10:15:03;4.23;;;3.20;;
13238;SDS011;6686;51.292;4.166;2023-07-22T10:17:50;4.23;;;2.80;;
13238;SDS011;6686;51.292;4.166;2023-07-22T10:20:36;4.17;;;2.80;;
13238;SDS011;6686;51.292;4.166;2023-07-22T10:23:21;6.27;;;3.47;;
13238;SDS011;6686;51.292;4.166;2023-07-22T10:26:07;5.87;;;2.87;;
13238;SDS011;6686;51.292;4.166;2023-07-22T10:28:53;4.50;;;2.60;;
13238;SDS011;6686;51.292;4.166;2023-07-22T10:31:39;5.50;;;2.53;;
13238;SDS011;6686;51.292;4.166;2023-07-22T10:34:25;6.20;;;3.17;;
13238;SDS011;6686;51.292;4.166;2023-07-22T10:37:10;3.20;;;2.77;;
13238;SDS011;6686;51.292;4.166;2023-07-22T10:40:00;5.63;;;2.90;;
13238;SDS011;6686;51.292;4.166;2023-07-22T10:45:50;5.20;;;2.60;;
13238;SDS011;6686;51.292;4.166;2023-07-22T10:48:35;3.37;;;2.40;;
13238;SDS011;6686;51.292;4.166;2023-07-22T10:51:20;5.53;;;2.70;;
13238;SDS011;6686;51.292;4.166;2023-07-22T10:54:13;4.27;;;2.60;;
13238;SDS011;6686;51.292;4.166;2023-07-22T10:57:02;5.93;;;2.43;;
13238;SDS011;6686;51.292;4.166;2023-07-22T10:59:48;2.73;;;2.40;;
13238;SDS011;6686;51.292;4.166;2023-07-22T11:02:33;2.60;;;2.20;;
13238;SDS011;6686;51.292;4.166;2023-07-22T11:05:19;4.23;;;2.30;;
13238;SDS011;6686;51.292;4.166;2023-07-22T11:08:04;4.13;;;2.23;;
13238;SDS011;6686;51.292;4.166;2023-07-22T11:10:53;5.53;;;2.30;;
13238;SDS011;6686;51.292;4.166;2023-07-22T11:13:39;4.90;;;2.27;;
13238;SDS011;6686;51.292;4.166;2023-07-22T11:16:28;4.87;;;2.20;;
13238;SDS011;6686;51.292;4.166;2023-07-22T11:19:19;4.87;;;2.43;;
13238;SDS011;6686;51.292;4.166;2023-07-22T11:22:04;3.10;;;2.20;;
13238;SDS011;6686;51.292;4.166;2023-07-22T11:24:49;2.90;;;2.30;;
13238;SDS011;6686;51.292;4.166;2023-07-22T11:27:35;4.17;;;2.10;;
13238;SDS011;6686;51.292;4.166;2023-07-22T11:34:39;2.40;;;1.83;;
13238;SDS011;6686;51.292;4.166;2023-07-22T11:37:28;3.10;;;2.00;;
13238;SDS011;6686;51.292;4.166;2023-07-22T11:41:03;2.10;;;1.80;;
13238;SDS011;6686;51.292;4.166;2023-07-22T11:43:18;3.73;;;1.83;;
13238;SDS011;6686;51.292;4.166;2023-07-22T11:46:05;2.43;;;1.70;;
13238;SDS011;6686;51.292;4.166;2023-07-22T11:48:51;5.23;;;2.27;;
13238;SDS011;6686;51.292;4.166;2023-07-22T11:51:42;2.47;;;1.87;;
13238;SDS011;6686;51.292;4.166;2023-07-22T11:54:28;2.17;;;1.60;;
13238;SDS011;6686;51.292;4.166;2023-07-22T11:57:15;3.07;;;1.93;;
13238;SDS011;6686;51.292;4.166;2023-07-22T12:00:03;4.13;;;2.83;;
13238;SDS011;6686;51.292;4.166;2023-07-22T12:02:54;5.67;;;2.40;;
13238;SDS011;6686;51.292;4.166;2023-07-22T12:05:43;3.63;;;2.30;;
13238;SDS011;6686;51.292;4.166;2023-07-22T12:08:29;4.10;;;2.60;;
13238;SDS011;6686;51.292;4.166;2023-07-22T12:11:18;4.37;;;2.60;;
13238;SDS011;6686;51.292;4.166;2023-07-22T12:14:05;5.20;;;2.50;;
13238;SDS011;6686;51.292;4.166;2023-07-22T12:16:52;4.30;;;2.30;;
13238;SDS011;6686;51.292;4.166;2023-07-22T12:19:55;5.70;;;2.40;;
13238;SDS011;6686;51.292;4.166;2023-07-22T12:22:41;4.23;;;2.10;;
13238;SDS011;6686;51.292;4.166;2023-07-22T12:25:37;4.27;;;2.50;;
13238;SDS011;6686;51.292;4.166;2023-07-22T12:28:27;6.20;;;2.53;;
13238;SDS011;6686;51.292;4.166;2023-07-22T12:31:12;3.77;;;2.53;;
13238;SDS011;6686;51.292;4.166;2023-07-22T12:33:58;4.23;;;2.80;;
13238;SDS011;6686;51.292;4.166;2023-07-22T12:36:44;4.67;;;2.40;;
13238;SDS011;6686;51.292;4.166;2023-07-22T12:39:30;2.50;;;2.27;;
13238;SDS011;6686;51.292;4.166;2023-07-22T12:42:22;5.43;;;2.50;;
13238;SDS011;6686;51.292;4.166;2023-07-22T12:45:09;3.73;;;2.50;;
13238;SDS011;6686;51.292;4.166;2023-07-22T12:48:01;4.30;;;3.13;;
13238;SDS011;6686;51.292;4.166;2023-07-22T12:50:47;5.47;;;2.50;;
13238;SDS011;6686;51.292;4.166;2023-07-22T12:53:56;5.10;;;2.60;;
13238;SDS011;6686;51.292;4.166;2023-07-22T12:56:43;5.17;;;2.40;;
13238;SDS011;6686;51.292;4.166;2023-07-22T12:59:31;4.03;;;2.10;;
13238;SDS011;6686;51.292;4.166;2023-07-22T13:02:17;4.87;;;2.40;;
13238;SDS011;6686;51.292;4.166;2023-07-22T13:05:03;5.37;;;2.60;;
13238;SDS011;6686;51.292;4.166;2023-07-22T13:07:49;4.10;;;2.30;;
13238;SDS011;6686;51.292;4.166;2023-07-22T13:10:35;5.27;;;2.37;;
13238;SDS011;6686;51.292;4.166;2023-07-22T13:13:21;4.03;;;2.53;;
13238;SDS011;6686;51.292;4.166;2023-07-22T13:16:07;3.70;;;2.83;;
13238;SDS011;6686;51.292;4.166;2023-07-22T13:18:54;5.30;;;2.93;;
13238;SDS011;6686;51.292;4.166;2023-07-22T13:21:44;4.77;;;2.63;;
13238;SDS011;6686;51.292;4.166;2023-07-22T13:24:33;5.53;;;2.50;;
13238;SDS011;6686;51.292;4.166;2023-07-22T13:27:19;4.97;;;2.50;;
13238;SDS011;6686;51.292;4.166;2023-07-22T13:30:06;5.07;;;2.40;;
13238;SDS011;6686;51.292;4.166;2023-07-22T13:32:51;3.37;;;2.23;;
13238;SDS011;6686;51.292;4.166;2023-07-22T13:35:36;3.53;;;2.47;;
13238;SDS011;6686;51.292;4.166;2023-07-22T13:38:22;5.17;;;2.50;;
13238;SDS011;6686;51.292;4.166;2023-07-22T13:41:08;3.43;;;2.47;;
13238;SDS011;6686;51.292;4.166;2023-07-22T13:43:54;3.67;;;2.17;;
13238;SDS011;6686;51.292;4.166;2023-07-22T13:46:40;3.07;;;2.17;;
13238;SDS011;6686;51.292;4.166;2023-07-22T13:49:26;5.70;;;2.20;;
13238;SDS011;6686;51.292;4.166;2023-07-22T13:52:12;3.20;;;2.10;;
13238;SDS011;6686;51.292;4.166;2023-07-22T13:54:58;4.23;;;2.30;;
13238;SDS011;6686;51.292;4.166;2023-07-22T13:57:44;4.70;;;2.50;;
13238;SDS011;6686;51.292;4.166;2023-07-22T14:00:30;4.53;;;2.57;;
13238;SDS011;6686;51.292;4.166;2023-07-22T14:03:16;3.58;;;2.60;;
13238;SDS011;6686;51.292;4.166;2023-07-22T14:06:02;3.00;;;2.20;;
13238;SDS011;6686;51.292;4.166;2023-07-22T14:08:48;4.43;;;2.33;;
13238;SDS011;6686;51.292;4.166;2023-07-22T14:11:34;4.97;;;2.60;;
13238;SDS011;6686;51.292;4.166;2023-07-22T14:14:20;4.00;;;2.67;;
13238;SDS011;6686;51.292;4.166;2023-07-22T14:17:06;3.77;;;2.20;;
13238;SDS011;6686;51.292;4.166;2023-07-22T14:19:52;3.80;;;2.20;;
13238;SDS011;6686;51.292;4.166;2023-07-22T14:22:38;5.18;;;3.12;;
13238;SDS011;6686;51.292;4.166;2023-07-22T14:25:24;4.80;;;2.23;;
13238;SDS011;6686;51.292;4.166;2023-07-22T14:28:10;7.33;;;2.20;;
13238;SDS011;6686;51.292;4.166;2023-07-22T14:30:57;5.33;;;2.33;;
13238;SDS011;6686;51.292;4.166;2023-07-22T14:33:42;6.57;;;2.07;;
13238;SDS011;6686;51.292;4.166;2023-07-22T14:36:28;4.77;;;2.20;;
13238;SDS011;6686;51.292;4.166;2023-07-22T14:39:14;3.33;;;2.00;;
13238;SDS011;6686;51.292;4.166;2023-07-22T14:42:00;3.53;;;2.10;;
13238;SDS011;6686;51.292;4.166;2023-07-22T14:44:46;3.00;;;2.13;;
13238;SDS011;6686;51.292;4.166;2023-07-22T14:47:32;4.03;;;2.10;;
13238;SDS011;6686;51.292;4.166;2023-07-22T14:50:17;3.57;;;1.93;;
13238;SDS011;6686;51.292;4.166;2023-07-22T14:53:03;5.10;;;2.00;;
13238;SDS011;6686;51.292;4.166;2023-07-22T14:55:49;2.77;;;2.03;;
13238;SDS011;6686;51.292;4.166;2023-07-22T14:58:34;3.33;;;2.07;;
13238;SDS011;6686;51.292;4.166;2023-07-22T15:01:21;3.43;;;2.10;;
13238;SDS011;6686;51.292;4.166;2023-07-22T15:04:07;4.00;;;2.50;;
13238;SDS011;6686;51.292;4.166;2023-07-22T15:06:52;3.83;;;2.10;;
13238;SDS011;6686;51.292;4.166;2023-07-22T15:09:38;2.77;;;2.10;;
13238;SDS011;6686;51.292;4.166;2023-07-22T15:12:24;4.00;;;2.20;;
13238;SDS011;6686;51.292;4.166;2023-07-22T15:15:11;6.03;;;2.17;;
13238;SDS011;6686;51.292;4.166;2023-07-22T15:17:56;3.90;;;2.40;;
13238;SDS011;6686;51.292;4.166;2023-07-22T15:20:42;3.40;;;2.27;;
13238;SDS011;6686;51.292;4.166;2023-07-22T15:23:28;4.13;;;2.50;;
13238;SDS011;6686;51.292;4.166;2023-07-22T15:26:14;3.27;;;2.53;;
13238;SDS011;6686;51.292;4.166;2023-07-22T15:28:59;3.63;;;2.40;;
13238;SDS011;6686;51.292;4.166;2023-07-22T15:31:45;4.25;;;2.28;;
13238;SDS011;6686;51.292;4.166;2023-07-22T15:34:31;2.80;;;2.10;;
13238;SDS011;6686;51.292;4.166;2023-07-22T15:37:17;5.43;;;2.67;;
13238;SDS011;6686;51.292;4.166;2023-07-22T15:40:03;5.37;;;2.63;;
13238;SDS011;6686;51.292;4.166;2023-07-22T15:42:49;4.63;;;2.40;;
13238;SDS011;6686;51.292;4.166;2023-07-22T15:45:36;3.87;;;2.20;;
13238;SDS011;6686;51.292;4.166;2023-07-22T15:48:22;3.20;;;2.10;;
13238;SDS011;6686;51.292;4.166;2023-07-22T15:51:08;8.27;;;2.60;;
13238;SDS011;6686;51.292;4.166;2023-07-22T15:53:54;4.63;;;2.70;;
13238;SDS011;6686;51.292;4.166;2023-07-22T15:56:40;4.90;;;2.70;;
13238;SDS011;6686;51.292;4.166;2023-07-22T15:59:26;5.13;;;2.47;;
13238;SDS011;6686;51.292;4.166;2023-07-22T16:02:12;5.23;;;3.20;;
13238;SDS011;6686;51.292;4.166;2023-07-22T16:04:58;5.00;;;2.70;;
13238;SDS011;6686;51.292;4.166;2023-07-22T16:07:44;4.63;;;2.80;;
13238;SDS011;6686;51.292;4.166;2023-07-22T16:10:30;6.83;;;3.07;;
13238;SDS011;6686;51.292;4.166;2023-07-22T16:13:15;7.27;;;3.77;;
13238;SDS011;6686;51.292;4.166;2023-07-22T16:16:01;4.87;;;2.97;;
13238;SDS011;6686;51.292;4.166;2023-07-22T16:18:47;5.90;;;3.40;;
13238;SDS011;6686;51.292;4.166;2023-07-22T16:21:33;5.60;;;3.53;;
13238;SDS011;6686;51.292;4.166;2023-07-22T16:24:19;4.93;;;3.13;;
13238;SDS011;6686;51.292;4.166;2023-07-22T16:27:05;7.13;;;3.10;;
13238;SDS011;6686;51.292;4.166;2023-07-22T16:29:52;3.93;;;2.93;;
13238;SDS011;6686;51.292;4.166;2023-07-22T16:32:37;7.20;;;3.20;;
13238;SDS011;6686;51.292;4.166;2023-07-22T16:35:23;7.67;;;3.70;;
13238;SDS011;6686;51.292;4.166;2023-07-22T16:38:09;6.80;;;3.80;;
13238;SDS011;6686;51.292;4.166;2023-07-22T16:40:55;9.37;;;5.20;;
13238;SDS011;6686;51.292;4.166;2023-07-22T16:43:41;4.03;;;3.47;;
13238;SDS011;6686;51.292;4.166;2023-07-22T16:46:27;5.60;;;3.30;;
13238;SDS011;6686;51.292;4.166;2023-07-22T16:49:12;11.67;;;3.73;;
13238;SDS011;6686;51.292;4.166;2023-07-22T16:51:58;4.13;;;2.93;;